Time;durP1;ratioP1;P1;durP2;ratioP2;P2;SDS_P1;SDS_P2;PMS_P1;PMS_P2;Temp;Humidity;BMP_temperature;BMP_pressure;BME280_temperature;BME280_humidity;BME280_pressure;Samples;Min_cycle;Max_cycle;Signal;HPM_P1;HPM_P2
2021/01/06 00:00:30;;;;;;;3.40;2.30;;;;;;;-1.21;73.66;101546.19;5083600;28;20106;-62
2021/01/06 00:02:56;;;;;;;4.07;2.38;;;;;;;-1.16;73.44;101550.78;5083670;28;20420;-63
2021/01/06 00:05:24;;;;;;;3.33;2.28;;;;;;;-1.23;73.70;101542.69;5083605;28;20475;-63
2021/01/06 00:07:50;;;;;;;3.05;1.95;;;;;;;-1.19;73.52;101532.75;5083445;28;20020;-67
2021/01/06 00:10:25;;;;;;;1.92;1.52;;;;;;;-1.24;73.65;101539.25;5083717;28;20077;-62
2021/01/06 00:12:51;;;;;;;3.53;2.22;;;;;;;-1.21;73.57;101541.09;5083576;28;20024;-62
2021/01/06 00:15:21;;;;;;;4.05;2.50;;;;;;;-1.19;73.41;101542.06;5083512;28;20374;-62
2021/01/06 00:17:46;;;;;;;2.35;1.58;;;;;;;-1.24;73.67;101534.16;5083448;28;20112;-62
2021/01/06 00:20:13;;;;;;;2.20;1.63;;;;;;;-1.21;73.55;101526.69;5083396;28;20118;-63
2021/01/06 00:22:39;;;;;;;2.70;2.20;;;;;;;-1.19;73.75;101524.22;5083177;28;20268;-62
2021/01/06 00:25:06;;;;;;;4.40;2.40;;;;;;;-1.18;73.86;101519.22;5083487;28;20025;-68
2021/01/06 00:27:32;;;;;;;3.80;2.53;;;;;;;-1.13;73.79;101519.50;5083485;28;20016;-63
2021/01/06 00:29:57;;;;;;;3.97;2.30;;;;;;;-1.09;73.63;101518.00;5083491;28;20028;-62
2021/01/06 00:32:22;;;;;;;1.73;1.55;;;;;;;-1.08;73.51;101517.19;5083347;28;20036;-62
2021/01/06 00:34:48;;;;;;;2.97;2.10;;;;;;;-1.10;73.48;101519.66;5082217;28;20075;-64
2021/01/06 00:37:14;;;;;;;3.35;2.08;;;;;;;-1.18;73.38;101497.97;5083186;28;20024;-62
2021/01/06 00:39:40;;;;;;;2.00;1.20;;;;;;;-1.17;73.19;101513.34;5083573;28;20024;-62
2021/01/06 00:42:05;;;;;;;4.47;2.38;;;;;;;-1.18;73.38;101509.03;5083422;28;20031;-62
2021/01/06 00:44:31;;;;;;;3.33;2.13;;;;;;;-1.19;73.35;101501.28;5083503;28;20020;-62
2021/01/06 00:46:56;;;;;;;4.20;2.25;;;;;;;-1.16;73.30;101488.72;5081978;28;20024;-62
2021/01/06 00:49:22;;;;;;;4.20;2.28;;;;;;;-1.19;73.65;101494.53;5083488;28;20032;-62
2021/01/06 00:51:49;;;;;;;6.10;2.90;;;;;;;-1.13;73.27;101492.34;5081678;28;20044;-62
2021/01/06 00:54:15;;;;;;;2.70;1.80;;;;;;;-1.14;73.39;101467.66;5083516;28;20025;-62
2021/01/06 00:56:40;;;;;;;3.80;2.55;;;;;;;-1.19;73.32;101481.78;5083455;28;20089;-63
2021/01/06 00:59:05;;;;;;;3.75;2.20;;;;;;;-1.22;73.34;101475.63;5083440;28;20107;-62
2021/01/06 01:01:31;;;;;;;3.22;2.20;;;;;;;-1.16;73.30;101478.53;5081816;28;20024;-63
2021/01/06 01:03:57;;;;;;;3.53;2.13;;;;;;;-1.18;73.26;101478.44;5083351;28;20025;-62
2021/01/06 01:06:27;;;;;;;3.20;2.17;;;;;;;-1.17;73.39;101479.34;5086297;28;20056;-62
2021/01/06 01:08:54;;;;;;;2.95;1.98;;;;;;;-1.19;73.18;101470.72;5087128;28;20032;-63
2021/01/06 01:11:21;;;;;;;2.58;1.70;;;;;;;-1.22;73.37;101471.44;5086811;28;20392;-63
2021/01/06 01:13:49;;;;;;;2.60;1.95;;;;;;;-1.23;73.27;101466.25;5087128;28;20021;-63
2021/01/06 01:16:14;;;;;;;2.70;1.70;;;;;;;-1.26;73.58;101455.06;5087079;28;20074;-63
2021/01/06 01:18:40;;;;;;;1.88;1.35;;;;;;;-1.22;73.28;101466.34;5086759;28;20024;-63
2021/01/06 01:21:05;;;;;;;4.30;2.35;;;;;;;-1.21;73.38;101468.09;5086351;28;20086;-61
2021/01/06 01:23:30;;;;;;;3.40;2.30;;;;;;;-1.21;73.16;101473.19;5086459;28;20055;-62
2021/01/06 01:25:57;;;;;;;2.25;1.98;;;;;;;-1.26;73.28;101461.84;5086632;28;20028;-62
2021/01/06 01:28:23;;;;;;;3.33;2.22;;;;;;;-1.22;73.26;101468.88;5086726;28;20031;-62
2021/01/06 01:30:50;;;;;;;3.13;1.80;;;;;;;-1.23;73.20;101468.78;5086476;28;20032;-62
2021/01/06 01:33:16;;;;;;;2.83;2.22;;;;;;;-1.20;73.12;101461.31;5086848;28;20017;-63
2021/01/06 01:35:42;;;;;;;2.72;1.95;;;;;;;-1.23;72.92;101459.47;5086475;28;20062;-62
2021/01/06 01:38:14;;;;;;;2.10;1.50;;;;;;;-1.23;72.72;101453.50;5086434;28;20032;-62
2021/01/06 01:40:40;;;;;;;3.05;1.80;;;;;;;-1.31;72.85;101448.84;5085670;28;20468;-62
2021/01/06 01:43:12;;;;;;;2.78;1.60;;;;;;;-1.29;73.04;101459.09;5085752;28;20091;-63
2021/01/06 01:45:50;;;;;;;1.98;1.50;;;;;;;-1.32;72.73;101459.81;5086370;28;20028;-62
2021/01/06 01:48:24;;;;;;;3.40;2.25;;;;;;;-1.34;72.77;101463.94;5086364;28;20029;-62
2021/01/06 01:50:51;;;;;;;2.25;1.52;;;;;;;-1.33;72.85;101460.63;5086173;28;20074;-62
2021/01/06 01:53:26;;;;;;;2.35;1.85;;;;;;;-1.37;72.99;101449.38;5086203;28;20027;-62
2021/01/06 01:55:52;;;;;;;2.83;2.22;;;;;;;-1.29;72.90;101461.66;5086172;28;20020;-62
2021/01/06 01:58:21;;;;;;;1.77;1.52;;;;;;;-1.21;72.55;101457.88;5086102;28;20032;-62
2021/01/06 02:00:48;;;;;;;2.65;2.10;;;;;;;-1.26;72.38;101460.19;5085921;28;20032;-61
2021/01/06 02:03:27;;;;;;;4.28;2.10;;;;;;;-1.31;72.55;101461.56;5086124;28;20024;-62
2021/01/06 02:05:59;;;;;;;3.10;1.85;;;;;;;-1.34;72.91;101443.56;5086109;28;20027;-62
2021/01/06 02:08:27;;;;;;;;;;;;;;;-1.35;72.57;101440.94;5086774;28;20344;-63
2021/01/06 02:10:57;;;;;;;2.70;2.00;;;;;;;-1.41;72.61;101452.53;5085680;28;19912;-62
2021/01/06 02:13:29;;;;;;;2.55;1.58;;;;;;;-1.45;72.66;101442.09;5084553;28;20084;-62
2021/01/06 02:16:22;;;;;;;1.30;1.20;;;;;;;-1.44;72.55;101444.72;5085500;28;20025;-62
2021/01/06 02:18:47;;;;;;;2.75;2.00;;;;;;;-1.46;72.46;101450.50;5086062;28;20046;-62
2021/01/06 02:21:16;;;;;;;3.30;2.10;;;;;;;-1.51;72.71;101440.06;5085358;28;20044;-63
2021/01/06 02:23:46;;;;;;;5.63;2.47;;;;;;;-1.50;72.96;101439.25;5085576;28;20449;-62
2021/01/06 02:26:11;;;;;;;1.88;1.65;;;;;;;-1.50;72.81;101419.75;5085792;28;20108;-62
2021/01/06 02:28:37;;;;;;;2.50;1.85;;;;;;;-1.48;72.80;101427.50;5085217;28;20031;-62
2021/01/06 02:31:03;;;;;;;3.17;1.77;;;;;;;-1.45;72.69;101431.91;5085272;28;20127;-62
2021/01/06 02:33:30;;;;;;;3.72;2.28;;;;;;;-1.50;72.76;101434.16;5085539;28;20024;-62
2021/01/06 02:35:56;;;;;;;3.60;2.28;;;;;;;-1.54;73.01;101428.03;5085341;28;20031;-63
2021/01/06 02:38:22;;;;;;;3.55;2.50;;;;;;;-1.46;72.96;101432.69;5083953;28;20032;-62
2021/01/06 02:40:51;;;;;;;3.67;1.85;;;;;;;-1.43;72.83;101415.03;5083952;28;20050;-62
2021/01/06 02:43:17;;;;;;;3.47;1.40;;;;;;;-1.44;72.63;101426.00;5085304;28;20032;-62
2021/01/06 02:45:43;;;;;;;2.72;1.88;;;;;;;-1.49;72.77;101420.66;5085110;28;20190;-62
2021/01/06 02:48:08;;;;;;;3.22;1.90;;;;;;;-1.46;72.88;101412.28;5085314;28;20029;-62
2021/01/06 02:50:36;;;;;;;2.50;1.65;;;;;;;-1.50;72.94;101414.66;5084939;28;20020;-63
2021/01/06 02:53:06;;;;;;;2.90;1.52;;;;;;;-1.53;73.04;101411.94;5085007;28;20347;-63
2021/01/06 02:55:33;;;;;;;3.55;2.33;;;;;;;-1.55;73.14;101394.84;5085020;28;20031;-64
2021/01/06 02:58:04;;;;;;;2.30;1.75;;;;;;;-1.60;73.16;101402.22;5084984;28;20408;-62
2021/01/06 03:00:29;;;;;;;2.50;1.35;;;;;;;-1.62;73.11;101391.94;5083675;28;20096;-63
2021/01/06 03:02:55;;;;;;;1.67;1.30;;;;;;;-1.64;73.23;101380.78;5084851;28;20084;-62
2021/01/06 03:05:35;;;;;;;2.33;1.67;;;;;;;-1.66;73.19;101379.81;5084793;28;20062;-62
2021/01/06 03:08:01;;;;;;;3.17;2.20;;;;;;;-1.63;73.25;101390.16;5084613;28;20048;-61
2021/01/06 03:10:27;;;;;;;3.10;2.00;;;;;;;-1.67;73.54;101384.81;5084733;28;20050;-64
2021/01/06 03:12:54;;;;;;;4.00;1.80;;;;;;;-1.66;73.13;101382.34;5083308;28;20020;-62
2021/01/06 03:15:21;;;;;;;4.45;2.30;;;;;;;-1.68;73.13;101381.41;5084496;28;20047;-63
2021/01/06 03:17:48;;;;;;;3.92;1.92;;;;;;;-1.70;73.43;101380.44;5084431;28;20028;-62
2021/01/06 03:20:26;;;;;;;4.28;2.05;;;;;;;-1.70;73.58;101380.44;5084505;28;20091;-62
2021/01/06 03:22:58;;;;;;;1.98;1.60;;;;;;;-1.68;73.22;101372.88;5083994;28;20067;-62
2021/01/06 03:25:23;;;;;;;2.13;1.92;;;;;;;-1.71;73.70;101375.25;5084496;28;20465;-62
2021/01/06 03:27:52;;;;;;;3.88;2.30;;;;;;;-1.67;73.31;101369.53;5083583;28;20067;-62
2021/01/06 03:30:25;;;;;;;4.22;2.20;;;;;;;-1.71;73.53;101368.47;5083856;28;20021;-63
2021/01/06 03:33:18;;;;;;;3.75;2.17;;;;;;;-1.66;73.52;101368.75;5084291;28;20077;-62
2021/01/06 03:35:47;;;;;;;2.50;1.92;;;;;;;-1.66;73.55;101368.75;5084322;28;20271;-61
2021/01/06 03:38:36;;;;;;;2.65;1.75;;;;;;;-1.64;73.41;101369.69;5083924;28;20039;-62
2021/01/06 03:41:05;;;;;;;3.20;2.28;;;;;;;-1.65;73.13;101361.22;5080299;28;20048;-61
2021/01/06 03:43:33;;;;;;;2.90;2.40;;;;;;;-1.70;73.41;101354.97;5084031;28;20025;-61
2021/01/06 03:46:10;;;;;;;6.15;2.35;;;;;;;-1.67;73.48;101351.69;5083911;28;20095;-62
2021/01/06 03:48:57;;;;;;;1.80;1.25;;;;;;;-1.64;73.46;101351.88;5084311;28;20448;-62
2021/01/06 03:51:33;;;;;;;3.08;1.90;;;;;;;-1.66;73.41;101340.75;5083582;28;20685;-62
2021/01/06 03:54:05;;;;;;;2.00;1.45;;;;;;;-1.68;73.59;101332.13;5084023;28;20013;-63
2021/01/06 03:56:37;;;;;;;1.70;1.20;;;;;;;-1.73;73.16;101318.25;5083771;28;20024;-62
2021/01/06 03:59:10;;;;;;;3.13;2.00;;;;;;;-1.69;73.25;101331.25;5084226;28;20032;-62
2021/01/06 04:01:49;;;;;;;2.63;2.03;;;;;;;-1.69;72.79;101325.28;5083472;28;20084;-62
2021/01/06 04:04:25;;;;;;;2.58;1.88;;;;;;;-1.73;73.21;101311.50;5082633;28;20452;-62
2021/01/06 04:06:54;;;;;;;2.78;1.90;;;;;;;-1.91;73.38;101296.94;5083458;28;20096;-62
2021/01/06 04:09:26;;;;;;;2.25;1.40;;;;;;;-1.81;73.27;101331.44;5083827;28;20028;-62
2021/01/06 04:12:01;;;;;;;3.05;1.98;;;;;;;-1.86;73.68;101315.00;5083648;28;20028;-62
2021/01/06 04:14:26;;;;;;;2.63;1.60;;;;;;;-1.76;73.21;101317.28;5083868;28;20465;-63
2021/01/06 04:16:52;;;;;;;2.80;1.70;;;;;;;-1.92;73.17;101313.00;5083444;28;20075;-63
2021/01/06 04:19:18;;;;;;;2.42;1.67;;;;;;;-1.90;73.35;101319.03;5082397;28;20054;-63
2021/01/06 04:21:44;;;;;;;5.57;1.90;;;;;;;-1.94;73.25;101318.78;5083010;28;20123;-62
2021/01/06 04:24:12;;;;;;;1.30;0.95;;;;;;;-1.98;73.61;101321.94;5083776;28;20489;-63
2021/01/06 04:26:38;;;;;;;3.75;2.10;;;;;;;-1.93;73.61;101315.47;5083450;28;20031;-62
2021/01/06 04:29:04;;;;;;;3.13;1.67;;;;;;;-2.02;73.74;101300.53;5082388;28;20024;-62
2021/01/06 04:31:29;;;;;;;5.57;2.03;;;;;;;-1.95;73.89;101307.72;5082072;28;20489;-62
2021/01/06 04:33:55;;;;;;;2.95;1.70;;;;;;;-1.91;73.75;101299.47;5083628;28;20017;-62
2021/01/06 04:36:27;;;;;;;2.72;1.98;;;;;;;-1.92;73.67;101302.81;5083257;28;20207;-62
2021/01/06 04:38:56;;;;;;;3.03;2.05;;;;;;;-1.89;73.59;101314.84;5084453;28;20024;-62
2021/01/06 04:41:29;;;;;;;2.45;2.03;;;;;;;-1.90;73.71;101301.22;5087375;28;20120;-61
2021/01/06 04:44:04;;;;;;;3.92;1.65;;;;;;;-1.94;73.60;101301.84;5086285;28;20025;-62
2021/01/06 04:46:45;;;;;;;3.15;2.03;;;;;;;-2.01;73.82;101312.44;5087577;28;20024;-62
2021/01/06 04:49:32;;;;;;;2.05;1.55;;;;;;;-2.06;73.87;101313.88;5087507;28;20028;-62
2021/01/06 04:52:01;;;;;;;2.63;1.65;;;;;;;-2.07;73.92;101299.38;5087213;28;20236;-63
2021/01/06 04:54:44;;;;;;;2.30;1.83;;;;;;;-2.12;73.92;101307.63;5087545;28;20037;-63
2021/01/06 04:57:22;;;;;;;2.17;1.60;;;;;;;-2.09;74.08;101324.75;5087321;28;20024;-63
2021/01/06 05:00:11;;;;;;;2.03;1.40;;;;;;;-2.03;73.55;101294.56;5087461;28;20027;-61
2021/01/06 05:03:16;;;;;;;1.45;1.35;;;;;;;-2.14;73.99;101301.56;5087046;28;20044;-62
2021/01/06 05:05:47;;;;;;;2.50;1.48;;;;;;;-2.16;74.13;101304.81;5087160;28;20013;-62
2021/01/06 05:08:16;;;;;;;3.47;2.38;;;;;;;-2.17;74.01;101291.22;5087092;28;20027;-62
2021/01/06 05:10:48;;;;;;;2.13;1.48;;;;;;;-2.17;73.95;101292.91;5086983;28;20225;-62
2021/01/06 05:13:25;;;;;;;1.63;1.23;;;;;;;-2.17;74.04;101298.00;5086868;28;20080;-62
2021/01/06 05:15:55;;;;;;;3.53;2.03;;;;;;;-2.19;74.16;101286.84;5086867;28;20020;-62
2021/01/06 05:18:20;;;;;;;3.33;1.90;;;;;;;-2.19;74.03;101281.75;5087069;28;20054;-63
2021/01/06 05:20:46;;;;;;;3.15;2.00;;;;;;;-2.17;74.06;101275.94;5086912;28;20088;-63
2021/01/06 05:23:22;;;;;;;2.40;1.85;;;;;;;-2.20;73.97;101257.97;5086422;28;20044;-61
2021/01/06 05:25:49;;;;;;;3.60;2.17;;;;;;;-2.16;73.65;101270.09;5086908;28;20365;-62
2021/01/06 05:28:17;;;;;;;2.33;1.60;;;;;;;-2.17;73.55;101249.66;5086968;28;20029;-62
2021/01/06 05:30:45;;;;;;;2.22;1.70;;;;;;;-2.26;73.43;101258.50;5086593;28;20079;-62
2021/01/06 05:33:13;;;;;;;2.42;1.30;;;;;;;-2.28;73.83;101261.72;5086630;28;20022;-62
2021/01/06 05:35:42;;;;;;;2.70;2.03;;;;;;;-2.24;73.38;101264.53;5086586;28;20017;-61
2021/01/06 05:38:09;;;;;;;4.07;1.83;;;;;;;-2.31;73.29;101257.34;5086253;28;20039;-62
2021/01/06 05:40:36;;;;;;;2.30;1.50;;;;;;;-2.30;73.29;101251.47;5085876;28;20028;-63
2021/01/06 05:43:28;;;;;;;1.85;1.50;;;;;;;-2.31;73.20;101248.84;5083860;28;20021;-63
2021/01/06 05:45:57;;;;;;;3.88;1.50;;;;;;;-2.34;72.95;101252.09;5086187;28;20021;-62
2021/01/06 05:48:42;;;;;;;2.30;1.63;;;;;;;-2.35;73.15;101244.38;5086455;28;20036;-63
2021/01/06 05:51:11;;;;;;;1.83;1.45;;;;;;;-2.33;72.82;101246.19;5085269;28;20028;-61
2021/01/06 05:53:45;;;;;;;4.90;1.85;;;;;;;-2.32;72.97;101235.25;5086221;28;20031;-61
2021/01/06 05:56:29;;;;;;;2.75;1.83;;;;;;;-2.35;72.85;101236.75;5086055;28;20027;-61
2021/01/06 05:58:59;;;;;;;1.65;1.35;;;;;;;-2.29;72.73;101242.19;5086550;28;20017;-61
2021/01/06 06:01:40;;;;;;;2.08;1.83;;;;;;;-2.31;72.53;101246.28;5084779;28;20049;-63
2021/01/06 06:04:17;;;;;;;1.42;1.20;;;;;;;-2.33;72.77;101246.19;5084688;28;20032;-61
2021/01/06 06:07:05;;;;;;;2.60;1.60;;;;;;;-2.33;72.97;101238.56;5085969;28;20413;-61
2021/01/06 06:09:33;;;;;;;1.95;1.70;;;;;;;-2.28;72.60;101247.34;5086138;28;20048;-61
2021/01/06 06:12:36;;;;;;;3.80;2.00;;;;;;;-2.29;72.50;101232.00;5085722;28;20032;-62
2021/01/06 06:15:25;;;;;;;2.40;1.00;;;;;;;-2.29;72.45;101240.53;5085977;28;20036;-62
2021/01/06 06:17:57;;;;;;;1.65;1.30;;;;;;;-2.29;72.48;101237.97;5085741;28;20036;-62
2021/01/06 06:21:00;;;;;;;1.75;1.25;;;;;;;-2.30;72.53;101233.66;5084506;28;20024;-61
2021/01/06 06:23:57;;;;;;;4.65;1.35;;;;;;;-2.28;72.39;101237.19;5085342;28;20522;-62
2021/01/06 06:26:49;;;;;;;3.25;1.20;;;;;;;-2.28;72.44;101237.19;5076927;28;20040;-62
2021/01/06 06:29:49;;;;;;;2.00;1.37;;;;;;;-2.31;72.06;101226.81;5084234;28;20017;-62
2021/01/06 06:32:15;;;;;;;2.60;1.95;;;;;;;-2.37;72.29;101206.13;5085284;28;20029;-62
2021/01/06 06:34:44;;;;;;;2.28;1.63;;;;;;;-2.37;72.44;101208.66;5085563;28;20036;-61
2021/01/06 06:37:17;;;;;;;2.47;1.25;;;;;;;-2.30;72.22;101207.38;5084832;28;20031;-62
2021/01/06 06:39:44;;;;;;;2.10;1.15;;;;;;;-2.31;72.23;101208.13;5085191;28;20107;-63
2021/01/06 06:42:29;;;;;;;2.05;1.33;;;;;;;-2.30;71.88;101187.88;5084596;28;20503;-63
2021/01/06 06:45:01;;;;;;;1.33;1.02;;;;;;;-2.35;72.07;101198.59;5084869;28;20024;-62
2021/01/06 06:47:48;;;;;;;2.35;1.70;;;;;;;-2.38;72.30;101202.69;5084943;28;20028;-63
2021/01/06 06:50:16;;;;;;;2.30;1.60;;;;;;;-2.34;72.35;101208.84;5084760;28;20031;-63
2021/01/06 06:53:28;;;;;;;1.73;1.38;;;;;;;-2.32;72.46;101209.81;5083194;28;20024;-62
2021/01/06 06:56:13;;;;;;;1.70;1.48;;;;;;;-2.31;72.24;101193.75;5081943;28;20129;-62
2021/01/06 06:59:17;;;;;;;2.22;1.42;;;;;;;-2.34;72.40;101196.13;5084744;28;20032;-63
2021/01/06 07:01:45;;;;;;;2.42;1.60;;;;;;;-2.24;72.50;101198.38;5082876;28;20029;-64
2021/01/06 07:04:19;;;;;;;2.40;1.40;;;;;;;-2.22;72.40;101185.75;5083994;28;20016;-62
2021/01/06 07:06:53;;;;;;;2.17;1.10;;;;;;;-2.15;71.91;101182.78;5083987;28;20031;-62
2021/01/06 07:09:25;;;;;;;1.70;1.50;;;;;;;-2.20;71.89;101186.72;5084468;28;20028;-62
2021/01/06 07:11:59;;;;;;;1.65;1.30;;;;;;;-2.21;72.14;101182.44;5084401;28;20028;-62
2021/01/06 07:14:30;;;;;;;1.50;1.00;;;;;;;-2.20;72.32;101179.09;5084457;28;20070;-61
2021/01/06 07:17:06;;;;;;;1.88;1.38;;;;;;;-2.24;72.30;101167.00;5084118;28;20469;-61
2021/01/06 07:19:50;;;;;;;2.10;1.38;;;;;;;-2.22;72.22;101169.63;5084316;28;20028;-63
2021/01/06 07:22:30;;;;;;;1.92;1.50;;;;;;;-2.33;72.24;101172.44;5083407;28;20044;-63
2021/01/06 07:25:04;;;;;;;1.73;1.27;;;;;;;-2.32;72.29;101184.38;5084092;28;20064;-61
2021/01/06 07:27:33;;;;;;;1.58;1.35;;;;;;;-2.39;72.35;101167.88;5084198;28;20021;-61
2021/01/06 07:29:59;;;;;;;1.42;1.33;;;;;;;-2.31;72.37;101190.31;5083895;28;20032;-61
2021/01/06 07:32:43;;;;;;;1.52;1.38;;;;;;;-2.33;72.36;101182.59;5083673;28;20029;-61
2021/01/06 07:35:21;;;;;;;1.73;1.27;;;;;;;-2.24;72.06;101192.44;5083971;28;20035;-62
2021/01/06 07:37:59;;;;;;;1.75;1.17;;;;;;;-2.34;72.13;101185.06;5083609;28;20020;-61
2021/01/06 07:40:31;;;;;;;2.47;1.52;;;;;;;-2.34;72.31;101175.78;5083837;28;20017;-61
2021/01/06 07:43:08;;;;;;;1.52;1.42;;;;;;;-2.35;72.20;101183.31;5083528;28;20021;-61
2021/01/06 07:45:39;;;;;;;1.77;1.25;;;;;;;-2.35;72.27;101199.47;5083621;28;20029;-61
2021/01/06 07:48:16;;;;;;;1.63;1.20;;;;;;;-2.38;72.36;101174.72;5083755;28;20038;-61
2021/01/06 07:51:12;;;;;;;1.42;1.10;;;;;;;-2.37;72.46;101188.31;5083616;28;20281;-61
2021/01/06 07:53:47;;;;;;;2.20;1.10;;;;;;;-2.33;72.58;101202.09;5070995;28;20039;-61
2021/01/06 07:56:26;;;;;;;2.88;1.10;;;;;;;-2.37;72.16;101185.78;5083728;28;20035;-62
2021/01/06 07:58:56;;;;;;;2.03;1.52;;;;;;;-2.40;72.38;101183.94;5083662;28;20053;-63
2021/01/06 08:01:35;;;;;;;2.47;1.50;;;;;;;-2.37;72.55;101184.13;5083441;28;20023;-63
2021/01/06 08:04:08;;;;;;;2.03;1.40;;;;;;;-2.38;72.80;101171.31;5083397;28;20088;-62
2021/01/06 08:07:07;;;;;;;2.03;1.50;;;;;;;-2.38;72.22;101177.25;5082890;28;20029;-62
2021/01/06 08:09:37;;;;;;;1.50;1.15;;;;;;;-2.37;72.17;101171.41;5081162;28;20028;-61
2021/01/06 08:12:26;;;;;;;1.23;1.05;;;;;;;-2.42;72.48;101157.53;5083294;28;20028;-63
2021/01/06 08:15:22;;;;;;;2.20;1.52;;;;;;;-2.39;72.43;101156.81;5083136;28;20052;-62
2021/01/06 08:18:04;;;;;;;1.17;0.98;;;;;;;-2.45;72.58;101167.53;5081749;28;20031;-63
2021/01/06 08:20:43;;;;;;;1.75;1.40;;;;;;;-2.44;72.58;101156.56;5083392;28;20021;-63
2021/01/06 08:23:14;;;;;;;1.58;1.17;;;;;;;-2.43;72.45;101162.53;5081522;28;20507;-62
2021/01/06 08:25:51;;;;;;;2.15;1.63;;;;;;;-2.44;72.56;101158.22;5083454;28;20075;-62
2021/01/06 08:28:23;;;;;;;1.95;1.50;;;;;;;-2.43;72.56;101157.47;5083183;28;20036;-62
2021/01/06 08:30:49;;;;;;;2.53;1.48;;;;;;;-2.43;72.57;101153.22;5081814;28;20041;-62
2021/01/06 08:33:15;;;;;;;1.00;0.90;;;;;;;-2.42;72.48;101155.00;5083189;28;20496;-61
2021/01/06 08:35:47;;;;;;;1.15;1.00;;;;;;;-2.52;72.68;101132.38;5082360;28;20024;-62
2021/01/06 08:38:33;;;;;;;1.70;1.35;;;;;;;-2.50;72.61;101138.44;5080199;28;20020;-62
2021/01/06 08:41:17;;;;;;;1.20;1.02;;;;;;;-2.45;72.71;101133.59;5081746;28;20025;-62
2021/01/06 08:43:43;;;;;;;4.35;1.42;;;;;;;-2.79;72.70;101089.31;5082681;28;20025;-62
2021/01/06 08:46:26;;;;;;;7.22;1.52;;;;;;;-2.44;72.97;101155.69;5082774;28;20024;-62
2021/01/06 08:48:52;;;;;;;2.83;1.20;;;;;;;-2.56;72.80;101120.28;5083289;28;20029;-61
2021/01/06 08:51:31;;;;;;;0.82;0.82;;;;;;;-2.39;72.57;101147.53;5082801;28;20231;-62
2021/01/06 08:53:57;;;;;;;1.52;1.15;;;;;;;-2.39;72.64;101139.03;5083228;28;20016;-62
2021/01/06 08:56:25;;;;;;;1.17;0.98;;;;;;;-2.38;72.76;101134.03;5082662;28;20029;-62
2021/01/06 08:58:54;;;;;;;3.83;1.30;;;;;;;-2.40;72.44;101140.72;5083127;28;20325;-62
2021/01/06 09:01:37;;;;;;;1.65;1.15;;;;;;;-2.36;72.76;101136.66;5082559;28;20024;-62
2021/01/06 09:04:09;;;;;;;2.10;1.23;;;;;;;-2.35;72.56;101129.91;5082807;28;20501;-62
2021/01/06 09:06:45;;;;;;;;;;;;;;;-2.27;72.55;101136.31;5082851;28;20437;-62
2021/01/06 09:09:34;;;;;;;1.33;1.10;;;;;;;-2.25;72.55;101130.50;5082994;28;19923;-62
2021/01/06 09:12:00;;;;;;;1.55;1.10;;;;;;;-2.28;72.46;101132.00;5082721;28;20036;-62
2021/01/06 09:14:33;;;;;;;2.30;1.83;;;;;;;-2.33;72.40;101110.53;5082750;28;20017;-62
2021/01/06 09:17:20;;;;;;;2.20;1.23;;;;;;;-2.22;72.34;101113.66;5082769;28;20027;-63
2021/01/06 09:19:53;;;;;;;1.30;0.95;;;;;;;-2.25;72.36;101104.19;5082692;28;20037;-62
2021/01/06 09:22:18;;;;;;;2.58;1.30;;;;;;;-2.22;72.42;101109.44;5082371;28;20047;-64
2021/01/06 09:24:45;;;;;;;1.85;1.30;;;;;;;-2.14;72.20;101107.34;5082762;28;20060;-62
2021/01/06 09:27:27;;;;;;;2.15;1.27;;;;;;;-2.13;72.48;101107.44;5085715;28;20016;-62
2021/01/06 09:29:55;;;;;;;1.38;1.20;;;;;;;-2.06;72.35;101108.63;5086796;28;20372;-62
2021/01/06 09:32:26;;;;;;;2.08;1.42;;;;;;;-2.02;72.63;101110.56;5086196;28;20074;-62
2021/01/06 09:34:58;;;;;;;1.17;0.80;;;;;;;-1.97;72.09;101099.72;5086235;28;20035;-63
2021/01/06 09:37:27;;;;;;;6.38;1.48;;;;;;;-2.01;72.46;101102.13;5085865;28;20024;-63
2021/01/06 09:39:56;;;;;;;7.00;1.25;;;;;;;-1.99;72.78;101102.19;5085374;28;20028;-62
2021/01/06 09:42:21;;;;;;;3.47;1.60;;;;;;;-1.95;72.92;101101.56;5084924;28;20558;-60
2021/01/06 09:44:49;;;;;;;1.70;1.20;;;;;;;-1.92;72.98;101113.59;5085723;28;20036;-63
2021/01/06 09:47:20;;;;;;;1.13;0.98;;;;;;;-1.94;72.82;101087.19;5086054;28;20042;-61
2021/01/06 09:49:55;;;;;;;2.25;1.60;;;;;;;-2.00;73.17;101108.94;5085970;28;20029;-63
2021/01/06 09:52:27;;;;;;;1.60;1.35;;;;;;;-2.02;73.46;101091.84;5085408;28;20146;-62
2021/01/06 09:54:54;;;;;;;;;;;;;;;-1.96;73.78;101088.75;5086473;28;20016;-62
2021/01/06 09:57:21;;;;;;;1.90;1.20;;;;;;;-2.03;73.82;101090.13;5085744;28;19916;-62
2021/01/06 09:59:53;;;;;;;3.33;1.30;;;;;;;-2.00;74.03;101087.72;5085933;28;20021;-62
2021/01/06 10:02:25;;;;;;;1.38;1.27;;;;;;;-2.07;74.21;101083.97;5085409;28;20021;-62
2021/01/06 10:04:54;;;;;;;1.15;0.98;;;;;;;-2.06;74.67;101085.72;5085783;28;20040;-62
2021/01/06 10:07:42;;;;;;;1.15;1.00;;;;;;;-2.04;74.50;101076.50;5083882;28;20024;-62
2021/01/06 10:10:10;;;;;;;1.92;1.42;;;;;;;-2.10;74.95;101072.75;5085780;28;20099;-62
2021/01/06 10:12:35;;;;;;;1.50;1.10;;;;;;;-2.11;75.30;101069.34;5085531;28;20163;-62
2021/01/06 10:15:28;;;;;;;3.63;1.05;;;;;;;-2.02;75.26;101064.75;5084103;28;20020;-63
2021/01/06 10:18:30;;;;;;;2.38;1.45;;;;;;;-1.98;75.24;101067.44;5085428;28;20059;-63
2021/01/06 10:21:25;;;;;;;2.90;1.80;;;;;;;-1.97;75.32;101059.00;5085254;28;20028;-63
2021/01/06 10:23:54;;;;;;;1.38;1.00;;;;;;;-1.95;75.50;101059.97;5084981;28;20036;-62
2021/01/06 10:26:44;;;;;;;2.25;1.40;;;;;;;-1.96;75.54;101059.09;5085245;28;20384;-63
2021/01/06 10:29:37;;;;;;;1.75;1.45;;;;;;;-1.95;75.75;101059.97;5085399;28;20035;-61
2021/01/06 10:32:05;;;;;;;1.38;1.20;;;;;;;-1.97;75.73;101051.38;5085090;28;20024;-63
2021/01/06 10:34:44;;;;;;;2.35;1.52;;;;;;;-1.96;75.91;101041.28;5083785;28;20484;-62
2021/01/06 10:37:19;;;;;;;2.22;1.38;;;;;;;-1.96;76.06;101036.19;5083735;28;20071;-61
2021/01/06 10:39:58;;;;;;;2.95;1.92;;;;;;;-1.96;76.30;101037.84;5084036;28;20035;-61
2021/01/06 10:42:23;;;;;;;2.70;1.85;;;;;;;-1.90;76.13;101035.66;5085133;28;20088;-62
2021/01/06 10:44:51;;;;;;;2.90;1.70;;;;;;;-1.92;76.25;101027.94;5085476;28;20051;-62
2021/01/06 10:47:26;;;;;;;1.92;1.73;;;;;;;-1.89;76.25;101019.59;5085307;28;20024;-62
2021/01/06 10:50:01;;;;;;;2.38;1.70;;;;;;;-1.89;76.26;101009.41;5084983;28;20028;-62
2021/01/06 10:52:51;;;;;;;2.25;1.42;;;;;;;-1.84;76.22;101013.06;5084670;28;20138;-62
2021/01/06 10:55:31;;;;;;;6.68;2.17;;;;;;;-1.89;76.25;101004.31;5084916;28;20044;-62
2021/01/06 10:58:03;;;;;;;3.33;1.67;;;;;;;-1.84;76.02;101013.06;5083633;28;20100;-62
2021/01/06 11:00:43;;;;;;;;;;;;;;;-1.87;76.24;101003.59;5085366;28;20027;-63
2021/01/06 11:03:33;;;;;;;2.10;1.70;;;;;;;-1.90;76.25;101005.13;5084561;28;19912;-62
2021/01/06 11:06:11;;;;;;;2.00;1.25;;;;;;;-1.88;76.45;100999.31;5084753;28;20024;-62
2021/01/06 11:09:06;;;;;;;5.15;2.00;;;;;;;-1.79;76.51;100988.72;5083545;28;20587;-63
2021/01/06 11:12:05;;;;;;;2.10;1.70;;;;;;;-1.72;76.36;100994.09;5084864;28;20024;-64
2021/01/06 11:14:39;;;;;;;2.65;1.83;;;;;;;-1.76;76.33;100983.78;5084730;28;20047;-62
2021/01/06 11:17:27;;;;;;;1.77;1.25;;;;;;;-1.75;76.57;100977.91;5084480;28;20324;-62
2021/01/06 11:19:54;;;;;;;1.80;1.10;;;;;;;-1.69;76.45;100984.97;5084725;28;20145;-62
2021/01/06 11:22:28;;;;;;;4.93;1.92;;;;;;;-1.77;76.63;100978.59;5083981;28;20040;-63
2021/01/06 11:25:14;;;;;;;1.73;1.52;;;;;;;-1.78;76.71;100965.03;5084549;28;20028;-63
2021/01/06 11:28:03;;;;;;;2.10;1.58;;;;;;;-1.85;77.21;100962.09;5083079;28;20032;-62
2021/01/06 11:30:39;;;;;;;1.50;1.40;;;;;;;-1.92;77.26;100941.41;5084109;28;20020;-63
2021/01/06 11:33:29;;;;;;;4.05;2.42;;;;;;;-1.87;77.29;100944.19;5083148;28;20012;-64
2021/01/06 11:36:09;;;;;;;2.92;1.70;;;;;;;-1.87;77.37;100954.38;5081481;28;20547;-63
2021/01/06 11:38:37;;;;;;;4.07;1.67;;;;;;;-1.88;77.52;100952.59;5084111;28;20025;-63
2021/01/06 11:41:09;;;;;;;3.67;2.05;;;;;;;-1.85;77.69;100942.56;5084316;28;20025;-64
2021/01/06 11:43:57;;;;;;;1.92;1.45;;;;;;;-1.89;77.83;100946.66;5083951;28;20015;-63
2021/01/06 11:46:26;;;;;;;2.83;1.90;;;;;;;-1.98;78.17;100941.06;5083753;28;20032;-64
2021/01/06 11:49:26;;;;;;;3.63;2.03;;;;;;;-1.99;78.49;100926.59;5083681;28;20574;-64
2021/01/06 11:52:13;;;;;;;3.47;2.20;;;;;;;-1.91;78.54;100934.63;5060962;28;20044;-63
2021/01/06 11:54:46;;;;;;;2.67;2.05;;;;;;;-1.95;78.51;100922.56;5061381;28;20025;-63
2021/01/06 11:57:25;;;;;;;2.28;1.92;;;;;;;-1.97;78.82;100916.50;5061266;28;20037;-63